Terminal Aerodrome Forecast
Issued by NWS Paducah, KY

Home | Current Version | Previous Version | Text Only | Print | Product List | Glossary On
Versions: 1 2 3 4 5 6 7 8 9 10 11 12 13 14
000
FTUS43 KPAH 290520
TAFEVV
TAF
KEVV 290520Z 2906/3006 VRB03KT P6SM SCT150
     FM291700 25007KT P6SM VCTS SCT040CB BKN070
     FM292100 29008KT P6SM BKN040
     FM300100 VRB03KT P6SM SCT040=

USA.gov is the U.S. government's official web portal to all federal, state and local government web resources and services.